Winters, TX (79567)

2:22 PM CDT on August 29, 2015 (GMT -0500)
West of Lake Winters | | Change Station
CLOSE
Current Station
Personal Weather Station
Location: Winters, TX
Elevation: 1834 ft
Nearby Weather Stations

Elev 1834 ft 31.96 °N, 99.88 °W | Updated 24 seconds ago

Overcast
Overcast
83.8 °F
Feels Like 86 °F
N
6.0
Wind Variable Wind from West
Gusts 7.4 mph

Today
High -- | Low -- °F
--% Chance of Precip.
Yesterday
High -- | Low -- °F
Precip. -- in
7:12 AM 8:07 PM
Full, 100% visible
Pressure 29.91 in
Visibility 10.0 miles
Clouds Scattered Clouds 11000 ft
Mostly Cloudy 13000 ft
Overcast 15000 ft
Heat Index 86 °F
Dew Point 66 °F
Humidity 54%
Rainfall 0.00 in
Snow Depth Not available.
UV 2.0 out of 12
Pollen 8.20 out of 12
Air Quality Not available.
Flu Activity Not available.
METAR KDYS 291858Z AUTO 30008KT 10SM SCT110 BKN130 OVC150 32/15 A3006 RMK AO2 SLP129 T03190151 $
Pressure 29.91 in
Visibility 10.0 miles
Clouds Scattered Clouds 11000 ft
Mostly Cloudy 13000 ft
Overcast 15000 ft
Heat Index 86 °F
Dew Point 66 °F
Humidity 54%
Rainfall 0.00 in
Snow Depth Not available.
UV 2.0 out of 12
Pollen 8.20 out of 12
Air Quality Not available.
Flu Activity Not available.
METAR KDYS 291858Z AUTO 30008KT 10SM SCT110 BKN130 OVC150 32/15 A3006 RMK AO2 SLP129 T03190151 $

10-Day Weather Forecast

×

Almanac

Astronomy

Aug. 29, 2015 Rise Set
Actual Time
Civil Twilight
Nautical Twilight
Astronomical Twilight
Moon
Length of Visible Light
Length of Day
Tomorrow will be .
, % of the Moon is Illuminated

Today's Extremes

State Highs State Lows

Community

WunderPhotos

Upload Photos

1,850,780 photos uploaded!

WunderBlogs® & News

Nearby

Air Quality

  Air Quality AQ Index Pollutant
Not available.

Snow Depth

Station Depth Elevation

Earthquake Activity

City Distance Mag. Time & Date
Minimum magnitude displayed is 2.5.

Coastal Water Temperatures

Place Temperature

Stations

Nearby Weather Stations

Station Location Temp. Windchill Dew Point Humidity Wind Precip. Elev Updated Type